Time;durP1;ratioP1;P1;durP2;ratioP2;P2;SDS_P1;SDS_P2;PMS_P1;PMS_P2;Temp;Humidity;BMP_temperature;BMP_pressure;BME280_temperature;BME280_humidity;BME280_pressure;Samples;Min_cycle;Max_cycle;Signal;HPM_P1;HPM_P2
2022/06/06 00:02:19;;;;;;;104.77;96.93;;;;;;;14.18;100.00;101502.00;1931437;74;26205;-76
2022/06/06 00:04:50;;;;;;;101.17;93.27;;;;;;;14.24;100.00;101503.08;1931217;74;26222;-73
2022/06/06 00:07:21;;;;;;;99.87;91.97;;;;;;;14.18;100.00;101506.19;1931285;74;26208;-73
2022/06/06 00:09:51;;;;;;;97.90;90.20;;;;;;;14.17;100.00;101501.16;1931289;74;26312;-75
2022/06/06 00:12:23;;;;;;;103.67;95.87;;;;;;;14.16;100.00;101502.88;1931342;74;26221;-76
2022/06/06 00:14:53;;;;;;;102.03;94.50;;;;;;;14.19;100.00;101503.11;1931554;74;26201;-73
2022/06/06 00:17:24;;;;;;;105.77;97.87;;;;;;;14.10;100.00;101501.52;1931230;72;26374;-73
2022/06/06 00:19:54;;;;;;;104.07;95.67;;;;;;;14.11;100.00;101499.00;1931318;74;26283;-76
2022/06/06 00:22:24;;;;;;;104.07;96.37;;;;;;;14.09;100.00;101495.66;1931192;74;26692;-73
2022/06/06 00:24:55;;;;;;;103.10;95.30;;;;;;;14.08;100.00;101499.56;1931245;74;26293;-73
2022/06/06 00:27:25;;;;;;;106.60;98.40;;;;;;;14.10;100.00;101491.73;1931403;74;26287;-76
2022/06/06 00:29:55;;;;;;;101.37;93.40;;;;;;;14.02;100.00;101490.14;1931337;74;26233;-73
2022/06/06 00:35:16;;;;;;;97.27;89.90;;;;;;;14.07;100.00;101495.69;1931358;74;26287;-75
2022/06/06 00:37:45;;;;;;;98.73;91.43;;;;;;;13.97;100.00;101488.78;1931488;74;26229;-73
2022/06/06 00:40:18;;;;;;;99.27;91.90;;;;;;;13.91;100.00;101489.38;1931276;74;26675;-73
2022/06/06 00:42:49;;;;;;;97.57;90.07;;;;;;;13.93;100.00;101485.74;1931253;74;26297;-75
2022/06/06 00:45:30;;;;;;;98.17;90.23;;;;;;;13.97;100.00;101485.43;1931351;74;26249;-75
2022/06/06 00:48:22;;;;;;;94.97;87.67;;;;;;;13.92;100.00;101478.48;1931588;74;26222;-74
2022/06/06 00:54:06;;;;;;;97.17;89.73;;;;;;;13.96;100.00;101465.59;2035061;69;32975;-73
2022/06/06 00:56:42;;;;;;;98.00;90.30;;;;;;;13.90;100.00;101471.53;2025269;70;26753;-76
2022/06/06 00:59:15;;;;;;;98.90;91.43;;;;;;;13.91;100.00;101475.97;2016759;71;26284;-75
2022/06/06 01:01:48;;;;;;;93.20;86.30;;;;;;;13.88;100.00;101468.19;2012774;70;26215;-75
2022/06/06 01:04:22;;;;;;;98.90;91.17;;;;;;;13.97;100.00;101473.42;2007758;70;26414;-75
2022/06/06 01:06:53;;;;;;;97.67;90.27;;;;;;;13.94;100.00;101467.03;2017566;70;26307;-73
2022/06/06 01:09:26;;;;;;;94.17;86.63;;;;;;;13.93;100.00;101470.94;1979798;72;26269;-75
2022/06/06 01:15:08;;;;;;;97.00;89.77;;;;;;;13.98;100.00;101456.94;2045080;69;32530;-75
2022/06/06 01:21:00;;;;;;;95.07;87.77;;;;;;;13.92;100.00;101452.51;2042119;69;33212;-76
2022/06/06 01:23:51;;;;;;;96.50;89.23;;;;;;;13.94;100.00;101465.63;2024807;70;26215;-76
2022/06/06 01:29:52;;;;;;;91.60;84.67;;;;;;;13.93;100.00;101451.39;2040700;69;32639;-75
2022/06/06 01:32:27;;;;;;;93.57;86.47;;;;;;;13.92;100.00;101448.32;1941787;72;26290;-73
2022/06/06 01:34:58;;;;;;;96.97;89.87;;;;;;;13.93;100.00;101452.23;1937925;74;26773;-75
2022/06/06 01:37:31;;;;;;;96.30;89.20;;;;;;;13.89;100.00;101454.50;1965462;72;26674;-75
2022/06/06 01:40:05;;;;;;;93.10;86.17;;;;;;;13.90;100.00;101457.02;1940544;73;26218;-73
2022/06/06 01:42:39;;;;;;;95.37;88.37;;;;;;;13.94;100.00;101454.46;1938141;73;26381;-75
2022/06/06 01:48:20;;;;;;;92.67;85.70;;;;;;;14.03;100.00;101449.32;2060965;69;32592;-74
2022/06/06 01:50:51;;;;;;;97.27;90.10;;;;;;;13.93;100.00;101454.18;1949070;73;26175;-76
2022/06/06 01:53:24;;;;;;;94.30;87.27;;;;;;;13.93;100.00;101449.44;1937926;74;26178;-76
2022/06/06 01:55:55;;;;;;;90.73;84.03;;;;;;;13.94;100.00;101443.29;1967133;72;26230;-75
2022/06/06 01:58:29;;;;;;;90.73;83.80;;;;;;;13.95;100.00;101444.38;1934668;73;26793;-76
2022/06/06 02:00:59;;;;;;;93.40;86.37;;;;;;;14.02;100.00;101439.86;2018547;70;26194;-73
2022/06/06 02:03:30;;;;;;;91.70;84.60;;;;;;;13.95;100.00;101440.18;2009069;70;26230;-73
2022/06/06 02:06:02;;;;;;;98.27;90.87;;;;;;;13.93;100.00;101441.61;2015692;70;26210;-76
2022/06/06 02:11:39;;;;;;;93.83;87.03;;;;;;;14.05;100.00;101425.30;2061365;69;33115;-74
2022/06/06 02:14:09;;;;;;;92.47;85.73;;;;;;;13.97;100.00;101431.52;1932684;73;26248;-73
2022/06/06 02:16:40;;;;;;;93.13;86.00;;;;;;;13.93;100.00;101430.45;1932697;73;26229;-76
2022/06/06 02:19:12;;;;;;;94.37;87.00;;;;;;;13.97;100.00;101428.17;2013926;70;26214;-74
2022/06/06 02:21:42;;;;;;;95.23;88.10;;;;;;;13.92;100.00;101430.16;2010023;70;26214;-73
2022/06/06 02:24:12;;;;;;;91.47;84.77;;;;;;;13.91;100.00;101421.52;2015227;70;26206;-76
2022/06/06 02:26:42;;;;;;;91.47;84.57;;;;;;;13.99;100.00;101426.48;2013681;70;26686;-74
2022/06/06 02:29:13;;;;;;;91.63;84.47;;;;;;;14.06;100.00;101425.01;2011328;70;26227;-76
2022/06/06 02:31:43;;;;;;;91.73;84.83;;;;;;;13.97;100.00;101417.00;2028078;70;26223;-74
2022/06/06 02:34:13;;;;;;;91.20;84.13;;;;;;;14.00;100.00;101421.15;2014382;70;26333;-73
2022/06/06 02:36:43;;;;;;;91.87;85.20;;;;;;;14.04;100.00;101416.64;2015003;70;26223;-74
2022/06/06 02:39:14;;;;;;;93.57;86.67;;;;;;;14.09;100.00;101417.98;2009692;70;26760;-74
2022/06/06 02:41:44;;;;;;;93.80;86.60;;;;;;;14.09;100.00;101410.44;2021433;70;26821;-76
2022/06/06 02:44:14;;;;;;;93.87;86.87;;;;;;;14.08;100.00;101410.16;2030144;70;26222;-74
2022/06/06 02:46:44;;;;;;;91.53;84.47;;;;;;;14.04;100.00;101411.88;2016834;70;26698;-74
2022/06/06 02:49:15;;;;;;;88.93;82.23;;;;;;;14.09;100.00;101411.84;2016727;71;26235;-74
2022/06/06 02:51:45;;;;;;;96.80;89.50;;;;;;;14.11;100.00;101408.20;2016894;70;26270;-76
2022/06/06 02:54:15;;;;;;;93.80;86.93;;;;;;;14.10;100.00;101414.08;2018274;70;26228;-76
2022/06/06 02:56:45;;;;;;;92.47;85.47;;;;;;;14.07;100.00;101414.11;2018262;70;26751;-76
2022/06/06 02:59:18;;;;;;;96.10;89.00;;;;;;;14.09;100.00;101411.00;2019371;70;26215;-76
2022/06/06 03:01:49;;;;;;;96.07;89.23;;;;;;;13.99;100.00;101413.92;2009416;70;26211;-74
2022/06/06 03:04:19;;;;;;;95.13;88.23;;;;;;;14.07;100.00;101414.67;2015208;70;26255;-74
2022/06/06 03:10:04;;;;;;;92.80;85.83;;;;;;;14.14;100.00;101403.97;2030771;69;32628;-73
2022/06/06 03:12:45;;;;;;;93.53;86.77;;;;;;;14.07;100.00;101406.30;2027094;70;26396;-75
2022/06/06 03:21:35;;;;;;;94.03;87.13;;;;;;;14.09;100.00;101405.41;2006847;70;26658;-76
2022/06/06 03:27:27;;;;;;;93.33;86.60;;;;;;;14.12;100.00;101390.84;2061207;69;32613;-76
2022/06/06 03:30:03;;;;;;;97.20;90.20;;;;;;;14.10;100.00;101409.33;2014931;70;26292;-73
2022/06/06 03:32:40;;;;;;;94.20;87.43;;;;;;;14.02;100.00;101408.57;2016884;70;26685;-75
2022/06/06 03:35:15;;;;;;;93.60;86.83;;;;;;;14.12;100.00;101407.05;2014417;70;26661;-76
2022/06/06 03:41:00;;;;;;;95.00;88.37;;;;;;;14.14;100.00;101399.78;2044986;69;33145;-75
2022/06/06 03:43:35;;;;;;;93.37;86.67;;;;;;;14.09;100.00;101410.44;2015161;70;26265;-77
2022/06/06 03:46:12;;;;;;;90.77;84.33;;;;;;;14.05;100.00;101403.78;1968951;72;26279;-78
2022/06/06 03:48:48;;;;;;;94.03;87.50;;;;;;;14.08;100.00;101405.14;1929583;73;26225;-77
2022/06/06 03:51:25;;;;;;;120.53;112.20;;;;;;;14.06;100.00;101414.39;1938123;74;26253;-74
2022/06/06 03:57:14;;;;;;;123.27;114.57;;;;;;;14.08;100.00;101394.80;2055567;69;32661;-75
2022/06/06 03:59:47;;;;;;;124.70;116.10;;;;;;;14.10;100.00;101401.50;1937197;73;26270;-78
2022/06/06 04:02:21;;;;;;;120.80;112.53;;;;;;;14.13;100.00;101403.70;1797930;73;940454;-74
2022/06/06 04:04:53;;;;;;;122.10;113.47;;;;;;;14.13;100.00;101407.88;1871372;76;26605;-76
2022/06/06 04:07:23;;;;;;;122.10;113.40;;;;;;;14.08;100.00;101407.94;1815927;78;26683;-78
2022/06/06 04:13:14;;;;;;;123.33;114.63;;;;;;;14.11;100.00;101402.61;2045809;69;33164;-76
2022/06/06 04:15:51;;;;;;;123.70;115.10;;;;;;;14.15;100.00;101409.84;2011259;70;26199;-74
2022/06/06 04:18:30;;;;;;;121.20;112.57;;;;;;;14.11;100.00;101404.57;2014337;70;26269;-77
2022/06/06 04:21:07;;;;;;;122.90;114.13;;;;;;;14.18;100.00;101409.80;2014476;70;26261;-75
2022/06/06 04:23:49;;;;;;;120.83;112.13;;;;;;;14.22;100.00;101416.45;2017586;70;26218;-77
2022/06/06 04:26:23;;;;;;;123.10;114.60;;;;;;;14.15;100.00;101415.42;2027867;70;26439;-77
2022/06/06 04:28:59;;;;;;;125.50;116.80;;;;;;;14.13;100.00;101424.65;2007516;70;26693;-74
2022/06/06 04:31:36;;;;;;;126.83;118.03;;;;;;;14.17;100.00;101415.11;2012256;70;26284;-77
2022/06/06 04:34:10;;;;;;;125.03;116.47;;;;;;;14.19;100.00;101419.84;2008264;70;26238;-77
2022/06/06 04:36:44;;;;;;;124.23;115.33;;;;;;;14.17;100.00;101411.75;2016924;70;26262;-77
2022/06/06 04:39:18;;;;;;;124.43;115.50;;;;;;;14.13;100.00;101411.52;2013358;70;26208;-75
2022/06/06 04:41:54;;;;;;;124.03;115.33;;;;;;;14.19;100.00;101414.27;2013993;70;26756;-75
2022/06/06 04:44:27;;;;;;;127.57;118.33;;;;;;;14.16;100.00;101421.84;1940355;73;26211;-77
2022/06/06 04:47:00;;;;;;;125.50;116.70;;;;;;;14.20;100.00;101417.33;1931530;73;26303;-75
2022/06/06 04:49:32;;;;;;;129.37;120.00;;;;;;;14.22;100.00;101423.44;1964930;72;26312;-76
2022/06/06 04:52:05;;;;;;;127.57;118.57;;;;;;;14.18;100.00;101420.97;1966390;73;26375;-74
2022/06/06 04:57:46;;;;;;;128.63;119.63;;;;;;;14.18;100.00;101412.59;2049051;69;32731;-75
2022/06/06 05:00:18;;;;;;;119.83;111.07;;;;;;;14.18;100.00;101432.14;1945055;72;26648;-74
2022/06/06 05:02:48;;;;;;;122.90;114.37;;;;;;;14.14;100.00;101427.16;1937877;74;26280;-75
2022/06/06 05:05:19;;;;;;;121.30;112.90;;;;;;;14.14;100.00;101435.54;1965629;72;26213;-73
2022/06/06 05:08:01;;;;;;;121.33;113.13;;;;;;;14.10;100.00;101430.84;1898824;73;26637;-72
2022/06/06 05:10:43;;;;;;;120.70;112.30;;;;;;;14.08;100.00;101431.67;1936567;73;26748;-73
2022/06/06 05:14:03;;;;;;;118.30;110.10;;;;;;;14.03;100.00;101436.75;1935821;73;26270;-76
2022/06/06 05:20:03;;;;;;;119.77;112.07;;;;;;;13.93;100.00;101435.47;2053575;69;32597;-76
2022/06/06 05:23:00;;;;;;;124.00;115.80;;;;;;;13.86;100.00;101441.13;2018220;70;26284;-76
2022/06/06 05:25:42;;;;;;;120.63;112.83;;;;;;;13.86;100.00;101445.32;1926970;74;26188;-73
2022/06/06 05:28:33;;;;;;;124.60;116.60;;;;;;;13.79;100.00;101440.05;1939155;73;26850;-73
2022/06/06 05:31:07;;;;;;;122.33;114.37;;;;;;;13.74;100.00;101448.47;2011183;70;26662;-73
2022/06/06 05:33:40;;;;;;;117.97;110.17;;;;;;;13.67;100.00;101451.61;2015294;70;26535;-73
2022/06/06 05:36:21;;;;;;;115.73;107.93;;;;;;;13.67;100.00;101455.80;2007139;70;26219;-75
2022/06/06 05:39:00;;;;;;;114.47;106.77;;;;;;;13.67;100.00;101461.38;2013142;70;26666;-73
2022/06/06 05:41:36;;;;;;;114.37;106.60;;;;;;;13.68;100.00;101463.61;1934835;73;26683;-75
2022/06/06 05:44:09;;;;;;;123.00;114.67;;;;;;;13.64;100.00;101463.92;1941162;73;26353;-75
2022/06/06 05:46:44;;;;;;;122.60;114.37;;;;;;;13.71;100.00;101466.38;1935016;73;26231;-76
2022/06/06 05:49:25;;;;;;;126.03;117.63;;;;;;;13.64;100.00;101456.39;1971837;72;26325;-73
2022/06/06 05:52:02;;;;;;;125.83;117.40;;;;;;;13.68;100.00;101458.87;1931266;73;26723;-72
2022/06/06 05:57:56;;;;;;;123.50;115.10;;;;;;;13.78;100.00;101452.93;2045482;69;32727;-76
2022/06/06 06:00:29;;;;;;;118.97;110.97;;;;;;;13.78;100.00;101469.69;2017249;70;26223;-76
2022/06/06 06:06:54;;;;;;;134.23;125.03;;;;;;;13.84;100.00;101468.50;2049295;69;32772;-76
2022/06/06 06:13:07;;;;;;;123.70;115.50;;;;;;;13.78;100.00;101469.09;2047989;69;33174;-75
2022/06/06 06:15:40;;;;;;;124.03;115.83;;;;;;;13.64;100.00;101477.33;2000311;70;26285;-77
2022/06/06 06:18:14;;;;;;;124.83;116.20;;;;;;;13.71;100.00;101485.36;2009860;70;26264;-77
2022/06/06 06:20:47;;;;;;;120.53;112.33;;;;;;;13.69;100.00;101488.42;1977196;72;26213;-77
2022/06/06 06:26:28;;;;;;;96.07;89.67;;;;;;;13.81;100.00;101488.08;2053644;69;33222;-74
2022/06/06 06:29:02;;;;;;;102.07;95.87;;;;;;;13.81;100.00;101497.86;2010109;70;26262;-80
2022/06/06 06:31:40;;;;;;;110.60;103.87;;;;;;;13.84;100.00;101494.47;2021646;70;26283;-75
2022/06/06 06:37:31;;;;;;;93.83;87.47;;;;;;;13.99;100.00;101485.95;2048192;69;32689;-74
2022/06/06 06:40:09;;;;;;;107.20;100.47;;;;;;;14.00;100.00;101486.23;2003996;70;26217;-74
2022/06/06 06:42:47;;;;;;;109.27;102.27;;;;;;;14.03;100.00;101493.20;1929097;73;26330;-76
2022/06/06 06:45:21;;;;;;;115.30;108.03;;;;;;;14.04;100.00;101499.88;2017976;70;26295;-76
2022/06/06 06:51:03;;;;;;;104.07;97.37;;;;;;;14.10;100.00;101493.14;2042141;69;32646;-75
2022/06/06 06:57:08;;;;;;;104.00;97.30;;;;;;;13.98;100.00;101501.06;2048868;69;33084;-75
2022/06/06 06:59:45;;;;;;;109.57;102.77;;;;;;;13.95;100.00;101511.96;2014715;70;26210;-72
2022/06/06 07:15:06;;;;;;;96.07;89.27;;;;;;;14.19;100.00;101514.84;2053475;69;32716;-73
2022/06/06 07:17:43;;;;;;;92.13;85.30;;;;;;;14.22;100.00;101520.68;2023677;71;26289;-75
2022/06/06 07:20:17;;;;;;;96.23;89.20;;;;;;;14.27;100.00;101524.83;2015429;70;26759;-76
2022/06/06 07:26:00;;;;;;;116.23;108.43;;;;;;;14.23;100.00;101516.77;2041675;69;33152;-82
2022/06/06 07:28:34;;;;;;;126.93;119.33;;;;;;;14.30;100.00;101528.98;1933424;73;26207;-85
2022/06/06 07:31:09;;;;;;;112.93;105.10;;;;;;;14.23;100.00;101529.34;1938550;74;26220;-78
2022/06/06 07:33:54;;;;;;;105.67;98.37;;;;;;;14.30;100.00;101533.18;1966410;72;26227;-81
2022/06/06 07:36:30;;;;;;;115.37;107.97;;;;;;;14.25;100.00;101530.45;1938171;74;26196;-75
2022/06/06 07:39:08;;;;;;;105.93;98.53;;;;;;;14.30;100.00;101529.83;1941422;73;26314;-81
2022/06/06 07:41:46;;;;;;;110.33;102.73;;;;;;;14.24;100.00;101534.38;1966408;72;26315;-83
2022/06/06 07:44:24;;;;;;;117.80;110.10;;;;;;;14.21;100.00;101534.94;1941692;73;26220;-77
2022/06/06 07:47:00;;;;;;;123.83;115.97;;;;;;;14.25;100.00;101531.27;1937122;73;26664;-83
2022/06/06 07:49:35;;;;;;;111.37;103.87;;;;;;;14.27;100.00;101531.81;1943133;73;26720;-75
2022/06/06 07:52:11;;;;;;;102.27;95.03;;;;;;;14.25;100.00;101531.86;1934796;73;26289;-80
2022/06/06 07:57:54;;;;;;;99.07;92.07;;;;;;;14.54;100.00;101525.73;2061118;69;32651;-80
2022/06/06 08:00:28;;;;;;;108.10;100.80;;;;;;;14.56;100.00;101517.30;2021851;70;26276;-76
2022/06/06 08:06:36;;;;;;;108.97;101.57;;;;;;;14.80;100.00;101510.91;2058288;69;32587;-78
2022/06/06 08:09:35;;;;;;;108.37;101.13;;;;;;;14.74;100.00;101522.70;1909196;74;26722;-77
2022/06/06 08:12:37;;;;;;;95.67;88.43;;;;;;;14.84;100.00;101524.00;1899261;75;26677;-79
2022/06/06 08:15:17;;;;;;;115.03;107.43;;;;;;;14.92;100.00;101515.51;1973189;72;26202;-75
2022/06/06 08:18:19;;;;;;;109.73;102.43;;;;;;;14.96;100.00;101519.38;1935520;73;26231;-76
2022/06/06 08:24:01;;;;;;;102.83;95.83;;;;;;;15.07;100.00;101520.91;2053317;69;32585;-79
2022/06/06 08:26:34;;;;;;;101.10;94.10;;;;;;;15.01;100.00;101530.51;1942761;73;26186;-75
2022/06/06 08:29:07;;;;;;;110.03;102.73;;;;;;;15.11;100.00;101531.77;1930165;73;26247;-79
2022/06/06 08:31:38;;;;;;;98.13;91.40;;;;;;;15.29;100.00;101526.77;1968256;72;26834;-74
2022/06/06 08:37:37;;;;;;;97.07;90.47;;;;;;;15.46;100.00;101515.90;2061312;69;33055;-78
2022/06/06 08:40:54;;;;;;;95.87;88.97;;;;;;;15.39;100.00;101528.61;2023680;70;26909;-77
2022/06/06 08:43:35;;;;;;;91.53;85.03;;;;;;;15.33;100.00;101524.20;2003321;70;26737;-79
2022/06/06 08:46:14;;;;;;;100.57;93.77;;;;;;;15.34;100.00;101525.31;2015781;70;26219;-75
2022/06/06 08:48:49;;;;;;;99.20;92.40;;;;;;;15.30;100.00;101527.05;2017265;70;26676;-75
2022/06/06 08:51:32;;;;;;;107.93;101.03;;;;;;;15.35;100.00;101532.58;2014792;70;26364;-79
2022/06/06 09:01:33;;;;;;;97.63;91.03;;;;;;;15.55;100.00;101518.05;2052502;69;32780;-80
2022/06/06 09:11:47;;;;;;;103.23;96.40;;;;;;;15.25;100.00;101510.31;2037799;69;33208;-75
2022/06/06 09:18:59;;;;;;;101.07;94.40;;;;;;;15.32;100.00;101530.92;2041623;69;32608;-75
2022/06/06 09:21:57;;;;;;;97.00;90.50;;;;;;;15.18;100.00;101537.84;1941041;73;26272;-77
2022/06/06 09:25:01;;;;;;;95.43;89.00;;;;;;;15.18;100.00;101539.25;1948243;73;26427;-86
2022/06/06 09:28:11;;;;;;;93.23;86.87;;;;;;;15.39;100.00;101544.01;1972576;72;26166;-77
2022/06/06 09:34:33;;;;;;;91.70;85.20;;;;;;;15.74;100.00;101535.70;2061604;69;33135;-77
2022/06/06 09:40:26;;;;;;;94.63;88.13;;;;;;;15.84;100.00;101541.13;2043364;69;33232;-76
2022/06/06 09:46:31;;;;;;;92.70;86.30;;;;;;;15.82;100.00;101542.02;2053485;69;33043;-75
2022/06/06 09:49:47;;;;;;;93.57;87.13;;;;;;;15.70;100.00;101560.66;2025566;70;26799;-85
2022/06/06 09:52:59;;;;;;;92.47;86.30;;;;;;;15.74;100.00;101546.34;2011761;70;26188;-80
2022/06/06 09:59:51;;;;;;;92.70;86.40;;;;;;;16.14;100.00;101541.20;2061053;69;32706;-75
2022/06/06 10:02:59;;;;;;;89.07;83.00;;;;;;;16.13;100.00;101543.17;2020348;70;24134;-75
2022/06/06 10:05:59;;;;;;;87.47;81.37;;;;;;;16.15;100.00;101553.53;1933701;73;26325;-75
2022/06/06 10:12:20;;;;;;;97.90;91.60;;;;;;;15.93;100.00;101549.12;2041856;69;32722;-80
2022/06/06 10:15:21;;;;;;;95.37;89.20;;;;;;;15.91;100.00;101547.20;2011004;70;26205;-83
2022/06/06 10:18:01;;;;;;;95.37;89.07;;;;;;;15.91;100.00;101547.20;2017531;71;24204;-81
2022/06/06 10:20:40;;;;;;;95.17;88.87;;;;;;;16.00;100.00;101547.34;2012932;70;24163;-83
2022/06/06 10:27:08;;;;;;;104.13;97.43;;;;;;;16.07;100.00;101543.58;2036466;69;31126;-76
2022/06/06 10:33:29;;;;;;;97.63;91.43;;;;;;;15.96;100.00;101551.30;2061102;69;30553;-79
2022/06/06 10:36:44;;;;;;;98.67;92.10;;;;;;;15.92;100.00;101558.66;2023514;70;26683;-75
2022/06/06 10:39:49;;;;;;;98.07;91.67;;;;;;;15.98;100.00;101560.25;1931448;74;24161;-80
2022/06/06 10:42:46;;;;;;;95.07;88.93;;;;;;;15.94;100.00;101552.19;1966526;72;26226;-75
2022/06/06 10:45:26;;;;;;;96.67;90.47;;;;;;;15.94;100.00;101552.19;1923439;73;26221;-79
2022/06/06 10:48:32;;;;;;;92.87;86.77;;;;;;;16.11;100.00;101555.28;1936957;73;26226;-80
2022/06/06 10:55:29;;;;;;;96.17;90.23;;;;;;;16.14;100.00;101553.82;2053520;69;33118;-73
2022/06/06 10:58:14;;;;;;;97.07;91.27;;;;;;;16.02;100.00;101560.47;1945918;73;26286;-86
2022/06/06 11:05:33;;;;;;;102.47;95.87;;;;;;;15.97;100.00;101547.38;2046003;69;33188;-82
2022/06/06 11:08:30;;;;;;;105.77;99.47;;;;;;;15.91;100.00;101562.05;1956541;72;26249;-82
2022/06/06 11:14:37;;;;;;;105.27;98.87;;;;;;;16.01;100.00;101568.61;2037345;69;33215;-80
2022/06/06 11:17:49;;;;;;;93.57;87.67;;;;;;;16.01;100.00;101568.61;2011045;70;24241;-82
2022/06/06 11:20:38;;;;;;;93.40;87.40;;;;;;;15.85;100.00;101568.02;2026326;70;26632;-79
2022/06/06 11:23:14;;;;;;;108.30;101.90;;;;;;;15.85;100.00;101568.02;1962106;72;26242;-82
2022/06/06 11:29:22;;;;;;;94.80;88.87;;;;;;;15.86;100.00;101562.13;2061637;69;33166;-75
2022/06/06 11:31:59;;;;;;;99.07;92.77;;;;;;;15.82;100.00;101574.23;2009631;70;26176;-76
2022/06/06 11:38:23;;;;;;;104.03;97.53;;;;;;;16.00;100.00;101578.17;2053565;69;33131;-77
2022/06/06 11:44:50;;;;;;;96.83;90.73;;;;;;;15.85;100.00;101570.81;2034807;69;32680;-77
2022/06/06 11:47:53;;;;;;;98.00;91.77;;;;;;;15.84;100.00;101582.59;2017069;70;26201;-86
2022/06/06 11:50:43;;;;;;;91.23;85.23;;;;;;;15.88;100.00;101578.61;1934470;73;26300;-78
2022/06/06 11:57:31;;;;;;;93.97;87.93;;;;;;;16.03;100.00;101576.16;2042740;69;32625;-77
2022/06/06 12:00:23;;;;;;;88.57;82.47;;;;;;;16.03;100.00;101576.16;2021385;70;24265;-86
2022/06/06 12:03:27;;;;;;;89.33;83.53;;;;;;;16.05;100.00;101571.90;1935646;73;24211;-75
2022/06/06 12:06:35;;;;;;;90.20;84.40;;;;;;;16.05;100.00;101572.46;1954321;73;24205;-74
2022/06/06 12:13:00;;;;;;;80.57;75.17;;;;;;;16.47;100.00;101562.52;2061286;69;33110;-82
2022/06/06 12:16:13;;;;;;;88.53;82.80;;;;;;;16.35;100.00;101566.36;1894575;73;26683;-76
2022/06/06 12:19:06;;;;;;;90.37;84.53;;;;;;;16.52;100.00;101569.98;1967618;72;24148;-75
2022/06/06 12:22:15;;;;;;;86.67;81.07;;;;;;;16.62;100.00;101569.84;1925264;73;24208;-80
2022/06/06 12:25:11;;;;;;;84.87;79.37;;;;;;;16.61;100.00;101568.17;1965843;72;26192;-80
2022/06/06 12:28:00;;;;;;;87.93;82.33;;;;;;;16.65;100.00;101560.81;1966444;73;26201;-76
2022/06/06 12:30:56;;;;;;;91.00;85.10;;;;;;;16.82;100.00;101565.25;1933931;73;24272;-74
2022/06/06 12:33:29;;;;;;;89.57;83.67;;;;;;;16.97;100.00;101567.78;1964804;72;26310;-75
2022/06/06 12:36:04;;;;;;;89.40;83.60;;;;;;;17.03;100.00;101561.50;1966597;73;24131;-74
2022/06/06 12:38:43;;;;;;;89.23;83.33;;;;;;;17.15;100.00;101561.81;1942237;73;24643;-76
2022/06/06 12:41:23;;;;;;;84.57;79.00;;;;;;;17.16;100.00;101557.84;1971459;72;24166;-75
2022/06/06 12:44:01;;;;;;;89.53;84.03;;;;;;;17.21;100.00;101553.52;1938265;74;24112;-76
2022/06/06 12:47:01;;;;;;;82.17;76.77;;;;;;;17.23;100.00;101554.89;1969490;72;24151;-77
2022/06/06 12:49:56;;;;;;;87.37;81.93;;;;;;;17.29;100.00;101549.98;1893825;73;24172;-76
2022/06/06 12:52:36;;;;;;;87.40;81.90;;;;;;;17.45;100.00;101547.12;1937574;73;24237;-79
2022/06/06 12:55:44;;;;;;;91.53;85.83;;;;;;;17.41;100.00;101550.30;1948196;73;24163;-79
2022/06/06 12:58:27;;;;;;;85.90;80.63;;;;;;;17.40;100.00;101554.25;1973950;72;24152;-78
2022/06/06 13:07:07;;;;;;;86.57;80.97;;;;;;;17.57;100.00;101543.77;2049628;69;33139;-78
2022/06/06 13:13:12;;;;;;;86.63;81.10;;;;;;;17.70;100.00;101551.37;2038554;69;30542;-81
2022/06/06 13:15:46;;;;;;;85.77;80.63;;;;;;;17.64;100.00;101552.05;2028991;71;26635;-76
2022/06/06 13:18:34;;;;;;;94.30;88.40;;;;;;;17.48;100.00;101555.48;1938058;73;24161;-75
2022/06/06 13:21:08;;;;;;;73.90;69.30;;;;;;;17.61;100.00;101554.09;1936383;73;24139;-76
2022/06/06 13:23:50;;;;;;;77.90;73.10;;;;;;;17.63;100.00;101553.75;2012790;70;24247;-75
2022/06/06 13:26:29;;;;;;;68.90;64.50;;;;;;;17.59;100.00;101556.37;2008300;70;24172;-77
2022/06/06 13:29:00;;;;;;;72.77;68.17;;;;;;;17.67;100.00;101550.60;2011057;70;24227;-77
2022/06/06 13:34:49;;;;;;;76.23;71.53;;;;;;;17.56;100.00;101539.28;2045066;69;30615;-76
2022/06/06 13:37:27;;;;;;;77.33;72.63;;;;;;;17.58;100.00;101553.33;2007877;70;26750;-73
2022/06/06 13:40:23;;;;;;;77.23;72.63;;;;;;;17.65;100.00;101552.31;2016990;70;24214;-81
2022/06/06 13:43:43;;;;;;;79.57;74.80;;;;;;;17.76;100.00;101550.08;2012548;70;24165;-74
2022/06/06 13:46:22;;;;;;;78.43;73.60;;;;;;;17.96;100.00;101549.63;1941642;73;24187;-77
2022/06/06 13:49:01;;;;;;;67.97;63.67;;;;;;;18.13;100.00;101552.58;1934352;73;24148;-80
2022/06/06 13:51:49;;;;;;;69.00;64.70;;;;;;;18.10;100.00;101548.97;1967188;72;24233;-77
2022/06/06 13:54:31;;;;;;;70.33;65.93;;;;;;;18.22;100.00;101556.02;1925482;72;26654;-74
2022/06/06 13:57:27;;;;;;;77.40;72.73;;;;;;;18.27;100.00;101553.09;1943023;73;24664;-80
2022/06/06 14:00:17;;;;;;;78.20;73.40;;;;;;;18.26;100.00;101555.06;1946012;73;24584;-75
2022/06/06 14:02:56;;;;;;;69.90;65.63;;;;;;;18.10;100.00;101555.17;1938638;73;24716;-77
2022/06/06 14:05:52;;;;;;;77.30;72.70;;;;;;;17.99;100.00;101548.98;1934674;73;24160;-77
2022/06/06 14:11:42;;;;;;;67.53;63.53;;;;;;;17.93;100.00;101549.40;2060194;69;30610;-77
2022/06/06 14:17:28;;;;;;;84.87;79.67;;;;;;;17.68;100.00;101550.27;2060226;69;30650;-77
2022/06/06 14:20:12;;;;;;;84.23;79.07;;;;;;;17.66;100.00;101553.98;1940661;73;24249;-78
2022/06/06 14:22:48;;;;;;;84.40;79.10;;;;;;;17.60;100.00;101547.38;1933793;73;24218;-82
2022/06/06 14:25:20;;;;;;;87.50;82.30;;;;;;;17.91;100.00;101548.34;1965721;73;24200;-82
2022/06/06 14:27:50;;;;;;;86.90;81.43;;;;;;;18.09;100.00;101542.28;1937022;73;26361;-80
2022/06/06 14:30:32;;;;;;;91.37;85.67;;;;;;;18.20;100.00;101545.08;1918303;70;104184;-76
2022/06/06 14:33:04;;;;;;;82.83;77.80;;;;;;;18.01;100.00;101536.02;1911693;75;24126;-75
2022/06/06 14:35:38;;;;;;;84.57;79.57;;;;;;;17.99;100.00;101532.11;1911912;75;26608;-75
2022/06/06 14:38:21;;;;;;;85.40;80.27;;;;;;;17.99;100.00;101528.47;1911688;75;24084;-73
2022/06/06 14:40:54;;;;;;;86.33;81.07;;;;;;;18.15;100.00;101524.11;1912103;75;24107;-82
2022/06/06 14:43:26;;;;;;;86.47;81.20;;;;;;;18.25;100.00;101528.09;1911978;75;24080;-81
2022/06/06 14:46:04;;;;;;;83.40;78.30;;;;;;;18.30;100.00;101525.72;1911540;75;24613;-77
2022/06/06 14:48:42;;;;;;;91.87;86.47;;;;;;;18.20;100.00;101517.80;1911677;75;24080;-74
2022/06/06 14:51:14;;;;;;;92.80;87.23;;;;;;;18.31;100.00;101519.78;1911819;75;24095;-74
2022/06/06 14:53:49;;;;;;;91.27;85.80;;;;;;;18.17;100.00;101523.23;1911672;75;24137;-75
2022/06/06 14:56:30;;;;;;;91.30;85.90;;;;;;;18.30;100.00;101525.15;1911979;75;24180;-73
2022/06/06 14:59:04;;;;;;;91.40;85.90;;;;;;;18.15;100.00;101524.11;1911936;75;24157;-78
2022/06/06 15:01:36;;;;;;;93.60;87.90;;;;;;;18.10;100.00;101520.85;1911943;75;24582;-78
2022/06/06 15:04:22;;;;;;;92.93;87.33;;;;;;;18.19;100.00;101519.51;1883539;76;24182;-78
2022/06/06 15:06:57;;;;;;;90.97;85.47;;;;;;;18.31;100.00;101514.73;1911948;75;24098;-74
2022/06/06 15:09:37;;;;;;;84.33;79.23;;;;;;;18.30;100.00;101513.06;1908597;73;24601;-81
2022/06/06 15:12:23;;;;;;;78.57;73.67;;;;;;;18.35;100.00;101505.91;1945413;74;24636;-74